sensor_id;sensor_type;location;lat;lon;timestamp;pressure;altitude;pressure_sealevel;temperature;humidity
84308;BME280;74486;52.070;5.128;2024-03-08T00:01:10;102011.31;;;2.60;100.00
84308;BME280;74486;52.070;5.128;2024-03-08T00:03:35;102007.66;;;2.58;100.00
84308;BME280;74486;52.070;5.128;2024-03-08T00:06:02;102004.78;;;2.55;100.00
84308;BME280;74486;52.070;5.128;2024-03-08T00:08:28;101993.25;;;2.60;100.00
84308;BME280;74486;52.070;5.128;2024-03-08T00:10:53;101999.75;;;2.57;100.00
84308;BME280;74486;52.070;5.128;2024-03-08T00:13:19;101996.59;;;2.51;100.00
84308;BME280;74486;52.070;5.128;2024-03-08T00:15:44;101994.16;;;2.44;100.00
84308;BME280;74486;52.070;5.128;2024-03-08T00:18:11;101993.41;;;2.45;100.00
84308;BME280;74486;52.070;5.128;2024-03-08T00:20:37;101999.16;;;2.42;100.00
84308;BME280;74486;52.070;5.128;2024-03-08T00:23:02;101990.41;;;2.32;100.00
84308;BME280;74486;52.070;5.128;2024-03-08T00:25:28;101988.59;;;2.31;100.00
84308;BME280;74486;52.070;5.128;2024-03-08T00:27:54;101986.75;;;2.30;100.00
84308;BME280;74486;52.070;5.128;2024-03-08T00:30:19;101986.28;;;2.34;100.00
84308;BME280;74486;52.070;5.128;2024-03-08T00:32:45;101979.19;;;2.31;100.00
84308;BME280;74486;52.070;5.128;2024-03-08T00:35:12;101977.94;;;2.28;100.00
84308;BME280;74486;52.070;5.128;2024-03-08T00:37:37;101972.50;;;2.25;100.00
84308;BME280;74486;52.070;5.128;2024-03-08T00:40:03;101963.41;;;2.19;100.00
84308;BME280;74486;52.070;5.128;2024-03-08T00:42:29;101967.53;;;2.17;100.00
84308;BME280;74486;52.070;5.128;2024-03-08T00:44:55;101962.50;;;2.19;100.00
84308;BME280;74486;52.070;5.128;2024-03-08T00:47:20;101972.81;;;2.10;100.00
84308;BME280;74486;52.070;5.128;2024-03-08T00:49:46;101969.03;;;2.15;100.00
84308;BME280;74486;52.070;5.128;2024-03-08T00:52:13;101960.66;;;2.18;100.00
84308;BME280;74486;52.070;5.128;2024-03-08T00:54:38;101960.81;;;2.19;100.00
84308;BME280;74486;52.070;5.128;2024-03-08T00:57:04;101959.78;;;2.17;100.00
84308;BME280;74486;52.070;5.128;2024-03-08T00:59:30;101956.41;;;2.18;100.00
84308;BME280;74486;52.070;5.128;2024-03-08T01:01:55;101950.81;;;2.14;100.00
84308;BME280;74486;52.070;5.128;2024-03-08T01:04:21;101947.66;;;2.08;100.00
84308;BME280;74486;52.070;5.128;2024-03-08T01:06:47;101942.50;;;2.08;100.00
84308;BME280;74486;52.070;5.128;2024-03-08T01:09:13;101937.34;;;2.08;100.00
84308;BME280;74486;52.070;5.128;2024-03-08T01:11:40;101930.84;;;2.03;100.00
84308;BME280;74486;52.070;5.128;2024-03-08T01:14:09;101927.34;;;2.02;100.00
84308;BME280;74486;52.070;5.128;2024-03-08T01:16:37;101932.50;;;2.02;100.00
84308;BME280;74486;52.070;5.128;2024-03-08T01:19:05;101931.88;;;1.96;100.00
84308;BME280;74486;52.070;5.128;2024-03-08T01:21:31;101918.84;;;1.95;100.00
84308;BME280;74486;52.070;5.128;2024-03-08T01:23:57;101928.22;;;1.94;100.00
84308;BME280;74486;52.070;5.128;2024-03-08T01:26:27;101922.50;;;1.97;100.00
84308;BME280;74486;52.070;5.128;2024-03-08T01:28:52;101918.53;;;1.92;100.00
84308;BME280;74486;52.070;5.128;2024-03-08T01:31:18;101910.19;;;1.94;100.00
84308;BME280;74486;52.070;5.128;2024-03-08T01:33:43;101908.41;;;1.93;100.00
84308;BME280;74486;52.070;5.128;2024-03-08T01:36:09;101907.16;;;1.90;100.00
84308;BME280;74486;52.070;5.128;2024-03-08T01:38:34;101905.50;;;1.90;100.00
84308;BME280;74486;52.070;5.128;2024-03-08T01:41:00;101905.22;;;1.87;100.00
84308;BME280;74486;52.070;5.128;2024-03-08T01:43:28;101900.66;;;1.85;100.00
84308;BME280;74486;52.070;5.128;2024-03-08T01:45:54;101901.44;;;1.84;100.00
84308;BME280;74486;52.070;5.128;2024-03-08T01:48:20;101897.16;;;1.75;100.00
84308;BME280;74486;52.070;5.128;2024-03-08T01:50:46;101887.94;;;1.69;100.00
84308;BME280;74486;52.070;5.128;2024-03-08T01:53:12;101889.44;;;1.75;100.00
84308;BME280;74486;52.070;5.128;2024-03-08T01:55:39;101893.09;;;1.78;100.00
84308;BME280;74486;52.070;5.128;2024-03-08T01:58:05;101889.75;;;1.79;100.00
84308;BME280;74486;52.070;5.128;2024-03-08T02:00:32;101888.53;;;1.75;100.00
84308;BME280;74486;52.070;5.128;2024-03-08T02:02:59;101892.31;;;1.70;100.00
84308;BME280;74486;52.070;5.128;2024-03-08T02:05:24;101881.88;;;1.68;100.00
84308;BME280;74486;52.070;5.128;2024-03-08T02:07:51;101882.34;;;1.64;100.00
84308;BME280;74486;52.070;5.128;2024-03-08T02:10:16;101877.47;;;1.67;100.00
84308;BME280;74486;52.070;5.128;2024-03-08T02:12:42;101879.44;;;1.61;100.00
84308;BME280;74486;52.070;5.128;2024-03-08T02:15:08;101878.25;;;1.58;100.00
84308;BME280;74486;52.070;5.128;2024-03-08T02:17:35;101871.28;;;1.48;100.00
84308;BME280;74486;52.070;5.128;2024-03-08T02:20:00;101868.53;;;1.47;100.00
84308;BME280;74486;52.070;5.128;2024-03-08T02:22:28;101861.72;;;1.47;100.00
84308;BME280;74486;52.070;5.128;2024-03-08T02:24:53;101857.63;;;1.49;100.00
84308;BME280;74486;52.070;5.128;2024-03-08T02:27:23;101860.66;;;1.54;100.00
84308;BME280;74486;52.070;5.128;2024-03-08T02:29:49;101851.69;;;1.50;100.00
84308;BME280;74486;52.070;5.128;2024-03-08T02:32:15;101854.00;;;1.47;100.00
84308;BME280;74486;52.070;5.128;2024-03-08T02:34:40;101855.38;;;1.44;100.00
84308;BME280;74486;52.070;5.128;2024-03-08T02:37:06;101855.22;;;1.34;100.00
84308;BME280;74486;52.070;5.128;2024-03-08T02:39:33;101844.91;;;1.34;100.00
84308;BME280;74486;52.070;5.128;2024-03-08T02:41:58;101838.56;;;1.30;100.00
84308;BME280;74486;52.070;5.128;2024-03-08T02:44:24;101834.91;;;1.28;100.00
84308;BME280;74486;52.070;5.128;2024-03-08T02:46:49;101838.69;;;1.23;100.00
84308;BME280;74486;52.070;5.128;2024-03-08T02:49:15;101828.09;;;1.20;100.00
84308;BME280;74486;52.070;5.128;2024-03-08T02:51:40;101830.78;;;1.21;100.00
84308;BME280;74486;52.070;5.128;2024-03-08T02:54:06;101827.63;;;1.15;100.00
84308;BME280;74486;52.070;5.128;2024-03-08T02:56:33;101826.84;;;1.16;100.00
84308;BME280;74486;52.070;5.128;2024-03-08T02:58:58;101825.53;;;1.11;100.00
84308;BME280;74486;52.070;5.128;2024-03-08T03:01:24;101818.38;;;1.17;100.00
84308;BME280;74486;52.070;5.128;2024-03-08T03:03:49;101816.09;;;1.12;100.00
84308;BME280;74486;52.070;5.128;2024-03-08T03:06:15;101812.31;;;1.17;100.00
84308;BME280;74486;52.070;5.128;2024-03-08T03:08:40;101819.47;;;1.11;100.00
84308;BME280;74486;52.070;5.128;2024-03-08T03:11:06;101808.84;;;1.08;100.00
84308;BME280;74486;52.070;5.128;2024-03-08T03:13:33;101807.91;;;1.07;100.00
84308;BME280;74486;52.070;5.128;2024-03-08T03:15:58;101804.31;;;1.05;100.00
84308;BME280;74486;52.070;5.128;2024-03-08T03:18:24;101799.63;;;1.10;100.00
84308;BME280;74486;52.070;5.128;2024-03-08T03:20:49;101808.53;;;1.13;100.00
84308;BME280;74486;52.070;5.128;2024-03-08T03:23:15;101800.66;;;1.12;100.00
84308;BME280;74486;52.070;5.128;2024-03-08T03:25:40;101800.81;;;1.05;100.00
84308;BME280;74486;52.070;5.128;2024-03-08T03:28:06;101800.50;;;1.02;100.00
84308;BME280;74486;52.070;5.128;2024-03-08T03:30:33;101796.25;;;0.94;100.00
84308;BME280;74486;52.070;5.128;2024-03-08T03:32:59;101792.19;;;0.87;100.00
84308;BME280;74486;52.070;5.128;2024-03-08T03:35:24;101799.13;;;0.88;100.00
84308;BME280;74486;52.070;5.128;2024-03-08T03:37:50;101792.31;;;0.88;100.00
84308;BME280;74486;52.070;5.128;2024-03-08T03:40:15;101777.16;;;0.83;100.00
84308;BME280;74486;52.070;5.128;2024-03-08T03:42:41;101772.19;;;0.84;100.00
84308;BME280;74486;52.070;5.128;2024-03-08T03:45:07;101775.66;;;0.85;100.00
84308;BME280;74486;52.070;5.128;2024-03-08T03:47:35;101774.91;;;0.86;100.00
84308;BME280;74486;52.070;5.128;2024-03-08T03:50:00;101775.66;;;0.85;100.00
84308;BME280;74486;52.070;5.128;2024-03-08T03:52:26;101778.06;;;0.83;100.00
84308;BME280;74486;52.070;5.128;2024-03-08T03:54:52;101771.72;;;0.80;100.00
84308;BME280;74486;52.070;5.128;2024-03-08T03:57:17;101772.94;;;0.83;100.00
84308;BME280;74486;52.070;5.128;2024-03-08T03:59:43;101780.34;;;0.80;100.00
84308;BME280;74486;52.070;5.128;2024-03-08T04:02:08;101782.19;;;0.81;100.00
84308;BME280;74486;52.070;5.128;2024-03-08T04:04:35;101774.13;;;0.78;100.00
84308;BME280;74486;52.070;5.128;2024-03-08T04:07:01;101774.28;;;0.80;100.00
84308;BME280;74486;52.070;5.128;2024-03-08T04:09:26;101768.53;;;0.74;100.00
84308;BME280;74486;52.070;5.128;2024-03-08T04:11:52;101765.81;;;0.72;100.00
84308;BME280;74486;52.070;5.128;2024-03-08T04:14:17;101768.69;;;0.75;100.00
84308;BME280;74486;52.070;5.128;2024-03-08T04:16:43;101762.94;;;0.78;100.00
84308;BME280;74486;52.070;5.128;2024-03-08T04:19:09;101765.38;;;0.76;100.00
84308;BME280;74486;52.070;5.128;2024-03-08T04:21:36;101762.63;;;0.75;100.00
84308;BME280;74486;52.070;5.128;2024-03-08T04:24:01;101754.63;;;0.72;100.00
84308;BME280;74486;52.070;5.128;2024-03-08T04:26:27;101758.53;;;0.68;100.00
84308;BME280;74486;52.070;5.128;2024-03-08T04:28:52;101752.34;;;0.75;100.00
84308;BME280;74486;52.070;5.128;2024-03-08T04:31:18;101751.59;;;0.76;100.00
84308;BME280;74486;52.070;5.128;2024-03-08T04:33:43;101747.03;;;0.73;100.00
84308;BME280;74486;52.070;5.128;2024-03-08T04:36:09;101755.38;;;0.71;100.00
84308;BME280;74486;52.070;5.128;2024-03-08T04:38:36;101756.13;;;0.61;100.00
84308;BME280;74486;52.070;5.128;2024-03-08T04:41:01;101757.47;;;0.58;100.00
84308;BME280;74486;52.070;5.128;2024-03-08T04:43:27;101744.91;;;0.61;100.00
84308;BME280;74486;52.070;5.128;2024-03-08T04:45:53;101741.59;;;0.62;100.00
84308;BME280;74486;52.070;5.128;2024-03-08T04:48:19;101731.88;;;0.59;100.00
84308;BME280;74486;52.070;5.128;2024-03-08T04:50:44;101734.47;;;0.59;100.00
84308;BME280;74486;52.070;5.128;2024-03-08T04:53:10;101734.00;;;0.63;100.00
84308;BME280;74486;52.070;5.128;2024-03-08T04:55:37;101734.91;;;0.55;100.00
84308;BME280;74486;52.070;5.128;2024-03-08T04:58:02;101733.38;;;0.49;100.00
84308;BME280;74486;52.070;5.128;2024-03-08T05:00:28;101732.63;;;0.50;100.00
84308;BME280;74486;52.070;5.128;2024-03-08T05:02:53;101734.00;;;0.46;100.00
84308;BME280;74486;52.070;5.128;2024-03-08T05:05:19;101733.25;;;0.47;100.00
84308;BME280;74486;52.070;5.128;2024-03-08T05:07:45;101729.75;;;0.47;100.00
84308;BME280;74486;52.070;5.128;2024-03-08T05:10:10;101729.75;;;0.55;100.00
84308;BME280;74486;52.070;5.128;2024-03-08T05:12:37;101728.09;;;0.56;100.00
84308;BME280;74486;52.070;5.128;2024-03-08T05:15:03;101721.94;;;0.62;99.67
84308;BME280;74486;52.070;5.128;2024-03-08T05:17:29;101728.28;;;0.57;98.68
84308;BME280;74486;52.070;5.128;2024-03-08T05:19:55;101719.03;;;0.51;99.64
84308;BME280;74486;52.070;5.128;2024-03-08T05:22:20;101723.41;;;0.52;99.79
84308;BME280;74486;52.070;5.128;2024-03-08T05:24:46;101723.69;;;0.46;100.00
84308;BME280;74486;52.070;5.128;2024-03-08T05:27:12;101722.78;;;0.46;100.00
84308;BME280;74486;52.070;5.128;2024-03-08T05:29:39;101721.41;;;0.40;100.00
84308;BME280;74486;52.070;5.128;2024-03-08T05:32:05;101724.16;;;0.42;100.00
84308;BME280;74486;52.070;5.128;2024-03-08T05:34:30;101718.09;;;0.41;100.00
84308;BME280;74486;52.070;5.128;2024-03-08T05:36:56;101717.94;;;0.40;100.00
84308;BME280;74486;52.070;5.128;2024-03-08T05:39:22;101716.72;;;0.45;100.00
84308;BME280;74486;52.070;5.128;2024-03-08T05:41:47;101712.97;;;0.41;100.00
84308;BME280;74486;52.070;5.128;2024-03-08T05:44:13;101714.63;;;0.50;99.74
84308;BME280;74486;52.070;5.128;2024-03-08T05:46:40;101714.03;;;0.43;99.87
84308;BME280;74486;52.070;5.128;2024-03-08T05:49:06;101710.22;;;0.49;99.41
84308;BME280;74486;52.070;5.128;2024-03-08T05:51:32;101711.13;;;0.49;99.25
84308;BME280;74486;52.070;5.128;2024-03-08T05:53:58;101708.44;;;0.48;98.71
84308;BME280;74486;52.070;5.128;2024-03-08T05:56:23;101709.63;;;0.42;98.90
84308;BME280;74486;52.070;5.128;2024-03-08T05:58:49;101706.44;;;0.36;99.41
84308;BME280;74486;52.070;5.128;2024-03-08T06:01:14;101700.69;;;0.30;99.53
84308;BME280;74486;52.070;5.128;2024-03-08T06:03:41;101695.53;;;0.30;99.74
84308;BME280;74486;52.070;5.128;2024-03-08T06:06:07;101699.00;;;0.31;100.00
84308;BME280;74486;52.070;5.128;2024-03-08T06:08:32;101700.84;;;0.40;99.85
84308;BME280;74486;52.070;5.128;2024-03-08T06:10:58;101692.38;;;0.41;99.20
84308;BME280;74486;52.070;5.128;2024-03-08T06:13:23;101688.75;;;0.39;99.06
84308;BME280;74486;52.070;5.128;2024-03-08T06:15:49;101686.78;;;0.46;98.64
84308;BME280;74486;52.070;5.128;2024-03-08T06:18:15;101684.22;;;0.46;98.53
84308;BME280;74486;52.070;5.128;2024-03-08T06:20:42;101681.53;;;0.53;97.71
84308;BME280;74486;52.070;5.128;2024-03-08T06:23:07;101686.34;;;0.50;97.44
84308;BME280;74486;52.070;5.128;2024-03-08T06:25:33;101684.50;;;0.49;98.26
84308;BME280;74486;52.070;5.128;2024-03-08T06:27:58;101686.22;;;0.48;98.01
84308;BME280;74486;52.070;5.128;2024-03-08T06:30:24;101695.59;;;0.48;98.50
84308;BME280;74486;52.070;5.128;2024-03-08T06:32:49;101691.66;;;0.51;98.93
84308;BME280;74486;52.070;5.128;2024-03-08T06:35:15;101683.94;;;0.51;98.52
84308;BME280;74486;52.070;5.128;2024-03-08T06:37:42;101685.13;;;0.55;98.00
84308;BME280;74486;52.070;5.128;2024-03-08T06:40:08;101686.22;;;0.57;97.99
84308;BME280;74486;52.070;5.128;2024-03-08T06:42:34;101685.13;;;0.63;97.21
84308;BME280;74486;52.070;5.128;2024-03-08T06:45:00;101680.91;;;0.64;97.34
84308;BME280;74486;52.070;5.128;2024-03-08T06:47:25;101674.25;;;0.66;97.19
84308;BME280;74486;52.070;5.128;2024-03-08T06:49:51;101674.09;;;0.73;96.53
84308;BME280;74486;52.070;5.128;2024-03-08T06:52:16;101670.00;;;0.75;96.23
84308;BME280;74486;52.070;5.128;2024-03-08T06:54:43;101672.56;;;0.83;96.73
84308;BME280;74486;52.070;5.128;2024-03-08T06:57:09;101669.41;;;0.86;95.61
84308;BME280;74486;52.070;5.128;2024-03-08T06:59:35;101673.91;;;0.97;95.54
84308;BME280;74486;52.070;5.128;2024-03-08T07:02:00;101668.47;;;1.03;95.30
84308;BME280;74486;52.070;5.128;2024-03-08T07:04:26;101664.38;;;1.13;94.18
84308;BME280;74486;52.070;5.128;2024-03-08T07:06:51;101667.53;;;1.28;93.33
84308;BME280;74486;52.070;5.128;2024-03-08T07:09:17;101658.09;;;1.37;92.33
84308;BME280;74486;52.070;5.128;2024-03-08T07:11:47;101661.88;;;1.49;91.03
84308;BME280;74486;52.070;5.128;2024-03-08T07:14:12;101666.66;;;1.63;90.97
84308;BME280;74486;52.070;5.128;2024-03-08T07:16:38;101669.03;;;1.79;89.59
84308;BME280;74486;52.070;5.128;2024-03-08T07:19:05;101657.44;;;1.93;89.25
84308;BME280;74486;52.070;5.128;2024-03-08T07:21:30;101651.16;;;1.99;88.34
84308;BME280;74486;52.070;5.128;2024-03-08T07:23:56;101661.09;;;2.13;86.93
84308;BME280;74486;52.070;5.128;2024-03-08T07:26:21;101649.09;;;2.23;86.67
84308;BME280;74486;52.070;5.128;2024-03-08T07:28:48;101649.84;;;2.40;85.29
84308;BME280;74486;52.070;5.128;2024-03-08T07:31:14;101649.53;;;2.46;85.43
84308;BME280;74486;52.070;5.128;2024-03-08T07:33:39;101637.56;;;2.94;83.79
84308;BME280;74486;52.070;5.128;2024-03-08T07:36:05;101633.03;;;3.20;81.57
84308;BME280;74486;52.070;5.128;2024-03-08T07:38:31;101630.84;;;3.25;80.00
84308;BME280;74486;52.070;5.128;2024-03-08T07:40:56;101623.66;;;3.31;80.82
84308;BME280;74486;52.070;5.128;2024-03-08T07:43:22;101626.53;;;3.34;79.69
84308;BME280;74486;52.070;5.128;2024-03-08T07:45:48;101623.28;;;3.36;79.08
84308;BME280;74486;52.070;5.128;2024-03-08T07:48:14;101619.72;;;3.55;80.04
84308;BME280;74486;52.070;5.128;2024-03-08T07:50:40;101613.81;;;3.76;79.32
84308;BME280;74486;52.070;5.128;2024-03-08T07:53:06;101620.03;;;3.68;78.24
84308;BME280;74486;52.070;5.128;2024-03-08T07:55:31;101621.19;;;3.71;78.12
84308;BME280;74486;52.070;5.128;2024-03-08T07:57:57;101613.44;;;3.81;77.38
84308;BME280;74486;52.070;5.128;2024-03-08T08:00:22;101613.97;;;4.08;77.98
84308;BME280;74486;52.070;5.128;2024-03-08T08:02:49;101606.34;;;4.29;75.54
84308;BME280;74486;52.070;5.128;2024-03-08T08:05:15;101599.72;;;4.53;76.02
84308;BME280;74486;52.070;5.128;2024-03-08T08:07:44;101595.03;;;4.69;74.28
84308;BME280;74486;52.070;5.128;2024-03-08T08:10:10;101605.44;;;4.91;74.03
84308;BME280;74486;52.070;5.128;2024-03-08T08:12:35;101600.78;;;4.97;72.88
84308;BME280;74486;52.070;5.128;2024-03-08T08:15:01;101590.03;;;4.93;72.29
84308;BME280;74486;52.070;5.128;2024-03-08T08:17:26;101593.19;;;4.89;72.52
84308;BME280;74486;52.070;5.128;2024-03-08T08:19:53;101592.16;;;5.08;70.98
84308;BME280;74486;52.070;5.128;2024-03-08T08:22:19;101591.94;;;5.37;71.21
84308;BME280;74486;52.070;5.128;2024-03-08T08:24:44;101584.22;;;5.71;69.18
84308;BME280;74486;52.070;5.128;2024-03-08T08:27:10;101582.16;;;5.88;68.92
84308;BME280;74486;52.070;5.128;2024-03-08T08:29:35;101580.13;;;5.96;68.10
84308;BME280;74486;52.070;5.128;2024-03-08T08:32:01;101580.41;;;6.10;68.49
84308;BME280;74486;52.070;5.128;2024-03-08T08:34:26;101563.41;;;6.26;66.87
84308;BME280;74486;52.070;5.128;2024-03-08T08:36:53;101566.94;;;6.49;66.04
84308;BME280;74486;52.070;5.128;2024-03-08T08:39:19;101561.75;;;6.49;65.02
84308;BME280;74486;52.070;5.128;2024-03-08T08:41:45;101550.91;;;6.32;64.88
84308;BME280;74486;52.070;5.128;2024-03-08T08:44:12;101556.44;;;6.60;64.91
84308;BME280;74486;52.070;5.128;2024-03-08T08:46:38;101547.41;;;6.78;64.51
84308;BME280;74486;52.070;5.128;2024-03-08T08:49:03;101552.69;;;7.14;63.90
84308;BME280;74486;52.070;5.128;2024-03-08T08:51:29;101544.19;;;7.53;62.84
84308;BME280;74486;52.070;5.128;2024-03-08T08:53:56;101542.53;;;7.78;62.16
84308;BME280;74486;52.070;5.128;2024-03-08T08:56:23;101535.63;;;7.54;60.77
84308;BME280;74486;52.070;5.128;2024-03-08T08:58:48;101533.66;;;7.63;61.24
84308;BME280;74486;52.070;5.128;2024-03-08T09:01:14;101527.22;;;7.83;60.88
84308;BME280;74486;52.070;5.128;2024-03-08T09:03:40;101523.63;;;7.94;60.30
84308;BME280;74486;52.070;5.128;2024-03-08T09:06:06;101525.69;;;8.11;60.08
84308;BME280;74486;52.070;5.128;2024-03-08T09:08:32;101525.28;;;8.18;59.07
84308;BME280;74486;52.070;5.128;2024-03-08T09:10:59;101513.44;;;8.48;58.07
84308;BME280;74486;52.070;5.128;2024-03-08T09:13:24;101516.84;;;8.73;57.97
84308;BME280;74486;52.070;5.128;2024-03-08T09:15:50;101517.84;;;8.89;57.45
84308;BME280;74486;52.070;5.128;2024-03-08T09:18:16;101500.53;;;9.58;55.29
84308;BME280;74486;52.070;5.128;2024-03-08T09:20:41;101501.72;;;9.22;55.43
84308;BME280;74486;52.070;5.128;2024-03-08T09:23:07;101505.75;;;9.17;56.44
84308;BME280;74486;52.070;5.128;2024-03-08T09:25:32;101501.06;;;9.39;54.63
84308;BME280;74486;52.070;5.128;2024-03-08T09:27:59;101497.53;;;9.24;55.74
84308;BME280;74486;52.070;5.128;2024-03-08T09:30:25;101490.94;;;9.58;54.29
84308;BME280;74486;52.070;5.128;2024-03-08T09:32:50;101492.13;;;9.91;54.41
84308;BME280;74486;52.070;5.128;2024-03-08T09:35:16;101478.31;;;9.94;53.75
84308;BME280;74486;52.070;5.128;2024-03-08T09:37:42;101468.81;;;10.38;52.04
84308;BME280;74486;52.070;5.128;2024-03-08T09:40:08;101468.25;;;10.44;50.99
84308;BME280;74486;52.070;5.128;2024-03-08T09:42:33;101460.53;;;10.76;49.80
84308;BME280;74486;52.070;5.128;2024-03-08T09:45:00;101460.00;;;10.98;50.34
84308;BME280;74486;52.070;5.128;2024-03-08T09:47:28;101457.44;;;10.83;49.99
84308;BME280;74486;52.070;5.128;2024-03-08T09:49:54;101448.16;;;10.88;51.29
84308;BME280;74486;52.070;5.128;2024-03-08T09:52:19;101444.00;;;11.08;50.06
84308;BME280;74486;52.070;5.128;2024-03-08T09:54:45;101442.66;;;10.84;48.81
84308;BME280;74486;52.070;5.128;2024-03-08T09:57:11;101433.72;;;11.27;50.32
84308;BME280;74486;52.070;5.128;2024-03-08T09:59:37;101434.84;;;11.16;49.03
84308;BME280;74486;52.070;5.128;2024-03-08T10:02:04;101436.81;;;11.37;47.70
84308;BME280;74486;52.070;5.128;2024-03-08T10:04:30;101429.34;;;11.76;48.03
84308;BME280;74486;52.070;5.128;2024-03-08T10:06:57;101421.88;;;11.84;47.82
84308;BME280;74486;52.070;5.128;2024-03-08T10:09:22;101420.19;;;12.02;46.35
84308;BME280;74486;52.070;5.128;2024-03-08T10:11:48;101426.44;;;12.04;46.83
84308;BME280;74486;52.070;5.128;2024-03-08T10:14:15;101417.78;;;11.89;47.56
84308;BME280;74486;52.070;5.128;2024-03-08T10:16:40;101403.69;;;12.39;47.30
84308;BME280;74486;52.070;5.128;2024-03-08T10:19:07;101390.72;;;12.42;44.65
84308;BME280;74486;52.070;5.128;2024-03-08T10:21:33;101389.44;;;12.51;45.56
84308;BME280;74486;52.070;5.128;2024-03-08T10:23:58;101378.66;;;12.82;44.65
84308;BME280;74486;52.070;5.128;2024-03-08T10:26:24;101375.41;;;13.25;44.24
84308;BME280;74486;52.070;5.128;2024-03-08T10:28:51;101361.47;;;13.46;43.78
84308;BME280;74486;52.070;5.128;2024-03-08T10:31:18;101365.31;;;13.34;42.92
84308;BME280;74486;52.070;5.128;2024-03-08T10:33:44;101350.28;;;13.51;42.92
84308;BME280;74486;52.070;5.128;2024-03-08T10:36:12;101351.38;;;13.16;43.45
84308;BME280;74486;52.070;5.128;2024-03-08T10:38:39;101348.13;;;13.42;42.48
84308;BME280;74486;52.070;5.128;2024-03-08T10:41:06;101343.81;;;13.63;42.86
84308;BME280;74486;52.070;5.128;2024-03-08T10:43:40;101336.66;;;13.59;42.01
84308;BME280;74486;52.070;5.128;2024-03-08T10:46:18;101311.81;;;14.15;41.41
84308;BME280;74486;52.070;5.128;2024-03-08T10:48:49;101316.59;;;14.46;42.53
84308;BME280;74486;52.070;5.128;2024-03-08T10:51:16;101310.88;;;14.79;38.81
84308;BME280;74486;52.070;5.128;2024-03-08T10:53:44;101315.38;;;14.60;40.08
84308;BME280;74486;52.070;5.128;2024-03-08T10:56:11;101306.19;;;14.95;39.91
84308;BME280;74486;52.070;5.128;2024-03-08T10:58:37;101319.28;;;15.17;38.34
84308;BME280;74486;52.070;5.128;2024-03-08T11:01:04;101308.41;;;15.08;37.56
84308;BME280;74486;52.070;5.128;2024-03-08T11:03:46;101297.94;;;14.86;37.97
84308;BME280;74486;52.070;5.128;2024-03-08T11:06:16;101292.59;;;15.32;37.33
84308;BME280;74486;52.070;5.128;2024-03-08T11:08:42;101289.66;;;14.75;37.68
84308;BME280;74486;52.070;5.128;2024-03-08T11:11:23;101283.19;;;14.67;38.04
84308;BME280;74486;52.070;5.128;2024-03-08T11:13:49;101269.72;;;15.31;37.52
84308;BME280;74486;52.070;5.128;2024-03-08T11:16:36;101266.16;;;15.29;36.87
84308;BME280;74486;52.070;5.128;2024-03-08T11:19:06;101263.59;;;14.83;37.46
84308;BME280;74486;52.070;5.128;2024-03-08T11:21:33;101239.47;;;15.70;37.64
84308;BME280;74486;52.070;5.128;2024-03-08T11:23:59;101236.09;;;16.01;35.18
84308;BME280;74486;52.070;5.128;2024-03-08T11:26:25;101224.97;;;15.83;35.42
84308;BME280;74486;52.070;5.128;2024-03-08T11:28:51;101215.94;;;16.31;34.72
84308;BME280;74486;52.070;5.128;2024-03-08T11:31:23;101214.25;;;15.78;35.46
84308;BME280;74486;52.070;5.128;2024-03-08T11:33:50;101203.47;;;16.27;34.24
84308;BME280;74486;52.070;5.128;2024-03-08T11:36:20;101200.09;;;16.92;34.11
84308;BME280;74486;52.070;5.128;2024-03-08T11:38:48;101200.75;;;16.54;33.29
84308;BME280;74486;52.070;5.128;2024-03-08T11:41:13;101199.19;;;17.25;33.38
84308;BME280;74486;52.070;5.128;2024-03-08T11:43:39;101191.19;;;17.56;32.75
84308;BME280;74486;52.070;5.128;2024-03-08T11:46:07;101186.44;;;18.15;32.77
84308;BME280;74486;52.070;5.128;2024-03-08T11:48:33;101187.84;;;17.99;32.24
84308;BME280;74486;52.070;5.128;2024-03-08T11:50:59;101190.09;;;17.48;31.66
84308;BME280;74486;52.070;5.128;2024-03-08T11:53:25;101179.69;;;17.90;31.60
84308;BME280;74486;52.070;5.128;2024-03-08T11:55:52;101177.00;;;17.89;32.04
84308;BME280;74486;52.070;5.128;2024-03-08T11:58:18;101175.53;;;17.29;31.59
84308;BME280;74486;52.070;5.128;2024-03-08T12:00:44;101167.50;;;17.25;31.28
84308;BME280;74486;52.070;5.128;2024-03-08T12:03:10;101175.50;;;17.28;31.91
84308;BME280;74486;52.070;5.128;2024-03-08T12:05:36;101171.19;;;16.97;31.51
84308;BME280;74486;52.070;5.128;2024-03-08T12:08:02;101174.53;;;16.00;33.55
84308;BME280;74486;52.070;5.128;2024-03-08T12:10:28;101179.69;;;16.87;32.42
84308;BME280;74486;52.070;5.128;2024-03-08T12:12:57;101164.25;;;17.71;31.40
84308;BME280;74486;52.070;5.128;2024-03-08T12:15:23;101158.19;;;17.75;30.82
84308;BME280;74486;52.070;5.128;2024-03-08T12:17:50;101171.47;;;16.75;31.55
84308;BME280;74486;52.070;5.128;2024-03-08T12:20:17;101160.53;;;17.63;32.10
84308;BME280;74486;52.070;5.128;2024-03-08T12:22:43;101153.69;;;17.02;31.97
84308;BME280;74486;52.070;5.128;2024-03-08T12:25:10;101162.72;;;17.82;31.38
84308;BME280;74486;52.070;5.128;2024-03-08T12:27:36;101155.34;;;17.31;31.87
84308;BME280;74486;52.070;5.128;2024-03-08T12:30:17;101148.00;;;16.87;33.25
84308;BME280;74486;52.070;5.128;2024-03-08T12:32:48;101154.38;;;16.95;32.66
84308;BME280;74486;52.070;5.128;2024-03-08T12:35:14;101138.59;;;17.31;31.74
84308;BME280;74486;52.070;5.128;2024-03-08T12:37:39;101149.59;;;16.80;32.04
84308;BME280;74486;52.070;5.128;2024-03-08T12:40:07;101145.34;;;16.56;33.28
84308;BME280;74486;52.070;5.128;2024-03-08T12:42:33;101127.13;;;16.96;33.06
84308;BME280;74486;52.070;5.128;2024-03-08T12:44:59;101120.22;;;16.68;32.88
84308;BME280;74486;52.070;5.128;2024-03-08T12:47:26;101117.59;;;16.38;33.51